EBBR

Brussels Airport

Brussels, Belgium
METAR EBBR 170650Z 22009KT 7000 SHRA BKN011 BKN015 05/04 Q1002 TEMPO 4000 SHRAGS BKN012TCU
Observed Flight Rules
Jan-17 @ 06:50 UTC (27 minutes ago) Marginal Visual Flight Rules
Wind Visibility Clouds Conditions
220° at 9 knots 7,001 meters
  • Broken at 1,100' AGL
  • Broken at 1,500' AGL
  • Rain
Temperatures Readings
Current 5°C / 41°F
Dewpoint 4°C / 39°F
Humidity 93%
Altimeter 29.59" Hg
Pressure 1001.92 hPa
Elevation 58
METAR EBBR 170650Z 22009KT 7000 SHRA BKN011 BKN015 05/04 Q1002 TEMPO 4000 SHRAGS BKN012TCU
Observed Flight Rules
Jan-17 @ 06:50 UTC
(27 minutes ago)
MVFR
Wind Visibility
220° at 9 knots 7,001 meters
Clouds
  • Broken at 1,100' AGL
  • Broken at 1,500' AGL
Conditions
  • Rain
Temperature Dewpoint
5°C / 41°F 4°C / 39°F
Humidity Altimeter Pressure
93% 29.59" Hg 1001.92 hPa